Babbitt, Minnesota
Current Conditions -  °F | °C
As of 1:33 AM on Saturday 29 Nov 2014 (Local Time) from KELO Reporting Station
Broken Clouds Broken Clouds  
Wind Chill:   Ceiling: 1400
Heat Index: 18°   Visibility: 10mi
Dew Point: 14°   Wind: 7mph
Humidity: 86%   Direction: 160°SSE
Pressure: 29.6"   Gusts: NA
Location:  47.71°N, 91.94°W
Report Text: KELO 290733Z AUTO 16006KT 10SM BKN014 BKN019 M08/M10 A2960 RMK AO2
Loading
Personal Weather Stations






























Interactive Weather Map New forecast layout! Learn more

10-Day Weather Forecast

Advertisements
Track Severe Weather on mobile